sensor_id;sensor_type;location;lat;lon;timestamp;pressure;altitude;pressure_sealevel;temperature;humidity
3544;BME280;1786;52.870;9.578;2022-07-06T00:00:20;101333.22;;;25.92;47.20
3544;BME280;1786;52.870;9.578;2022-07-06T00:02:47;101335.88;;;26.00;46.85
3544;BME280;1786;52.870;9.578;2022-07-06T00:05:14;101330.53;;;25.83;47.42
3544;BME280;1786;52.870;9.578;2022-07-06T00:07:40;101324.25;;;25.83;47.40
3544;BME280;1786;52.870;9.578;2022-07-06T00:10:07;101324.72;;;25.95;47.08
3544;BME280;1786;52.870;9.578;2022-07-06T00:12:33;101319.38;;;25.86;47.71
3544;BME280;1786;52.870;9.578;2022-07-06T00:15:00;101321.81;;;25.73;47.90
3544;BME280;1786;52.870;9.578;2022-07-06T00:17:26;101326.81;;;25.84;47.71
3544;BME280;1786;52.870;9.578;2022-07-06T00:19:53;101322.94;;;25.79;47.76
3544;BME280;1786;52.870;9.578;2022-07-06T00:22:20;101320.03;;;25.80;47.66
3544;BME280;1786;52.870;9.578;2022-07-06T00:24:47;101326.19;;;25.74;47.39
3544;BME280;1786;52.870;9.578;2022-07-06T00:27:13;101328.66;;;25.92;47.57
3544;BME280;1786;52.870;9.578;2022-07-06T00:29:40;101323.31;;;25.76;47.56
3544;BME280;1786;52.870;9.578;2022-07-06T00:32:13;101328.03;;;25.42;48.17
3544;BME280;1786;52.870;9.578;2022-07-06T00:34:41;101331.81;;;25.64;47.91
3544;BME280;1786;52.870;9.578;2022-07-06T00:37:09;101334.69;;;25.32;48.12
3544;BME280;1786;52.870;9.578;2022-07-06T00:39:36;101338.66;;;25.52;47.96
3544;BME280;1786;52.870;9.578;2022-07-06T00:42:03;101336.00;;;25.44;48.29
3544;BME280;1786;52.870;9.578;2022-07-06T00:44:29;101332.41;;;25.52;47.81
3544;BME280;1786;52.870;9.578;2022-07-06T00:46:57;101339.41;;;25.69;47.63
3544;BME280;1786;52.870;9.578;2022-07-06T00:49:24;101333.13;;;25.37;48.15
3544;BME280;1786;52.870;9.578;2022-07-06T00:52:10;101330.09;;;25.40;48.18
3544;BME280;1786;52.870;9.578;2022-07-06T00:54:39;101329.75;;;25.43;47.71
3544;BME280;1786;52.870;9.578;2022-07-06T00:57:06;101337.19;;;25.41;48.24
3544;BME280;1786;52.870;9.578;2022-07-06T00:59:32;101332.31;;;25.37;48.37
3544;BME280;1786;52.870;9.578;2022-07-06T01:01:59;101335.53;;;25.40;47.95
3544;BME280;1786;52.870;9.578;2022-07-06T01:04:26;101326.47;;;25.25;48.21
3544;BME280;1786;52.870;9.578;2022-07-06T01:06:53;101338.69;;;24.96;48.87
3544;BME280;1786;52.870;9.578;2022-07-06T01:09:19;101327.72;;;24.81;49.09
3544;BME280;1786;52.870;9.578;2022-07-06T01:11:47;101339.41;;;24.74;49.22
3544;BME280;1786;52.870;9.578;2022-07-06T01:14:14;101336.34;;;24.85;48.97
3544;BME280;1786;52.870;9.578;2022-07-06T01:16:41;101335.72;;;25.31;48.35
3544;BME280;1786;52.870;9.578;2022-07-06T01:19:09;101337.81;;;25.52;48.01
3544;BME280;1786;52.870;9.578;2022-07-06T01:21:38;101339.00;;;25.49;48.04
3544;BME280;1786;52.870;9.578;2022-07-06T01:24:05;101330.75;;;24.95;49.05
3544;BME280;1786;52.870;9.578;2022-07-06T01:26:32;101332.28;;;24.97;49.07
3544;BME280;1786;52.870;9.578;2022-07-06T01:28:59;101332.72;;;25.09;48.66
3544;BME280;1786;52.870;9.578;2022-07-06T01:31:26;101328.69;;;25.05;49.23
3544;BME280;1786;52.870;9.578;2022-07-06T01:33:54;101322.09;;;24.99;49.49
3544;BME280;1786;52.870;9.578;2022-07-06T01:36:22;101329.06;;;24.94;49.32
3544;BME280;1786;52.870;9.578;2022-07-06T01:38:52;101323.13;;;24.98;49.49
3544;BME280;1786;52.870;9.578;2022-07-06T01:41:20;101324.59;;;25.09;49.24
3544;BME280;1786;52.870;9.578;2022-07-06T01:43:47;101325.75;;;25.15;49.13
3544;BME280;1786;52.870;9.578;2022-07-06T01:46:14;101327.66;;;25.06;49.17
3544;BME280;1786;52.870;9.578;2022-07-06T01:48:42;101334.25;;;25.03;49.16
3544;BME280;1786;52.870;9.578;2022-07-06T01:51:09;101327.78;;;25.29;48.76
3544;BME280;1786;52.870;9.578;2022-07-06T01:53:38;101321.28;;;24.91;49.54
3544;BME280;1786;52.870;9.578;2022-07-06T01:56:06;101326.00;;;25.05;49.17
3544;BME280;1786;52.870;9.578;2022-07-06T01:58:34;101324.19;;;24.81;49.87
3544;BME280;1786;52.870;9.578;2022-07-06T02:01:09;101326.63;;;25.07;49.45
3544;BME280;1786;52.870;9.578;2022-07-06T02:03:37;101323.09;;;25.07;49.16
3544;BME280;1786;52.870;9.578;2022-07-06T02:06:05;101319.88;;;25.11;48.84
3544;BME280;1786;52.870;9.578;2022-07-06T02:08:33;101311.59;;;25.04;49.45
3544;BME280;1786;52.870;9.578;2022-07-06T02:11:00;101321.78;;;24.94;49.52
3544;BME280;1786;52.870;9.578;2022-07-06T02:13:28;101318.50;;;25.15;49.17
3544;BME280;1786;52.870;9.578;2022-07-06T02:15:55;101327.47;;;25.16;49.31
3544;BME280;1786;52.870;9.578;2022-07-06T02:18:22;101329.75;;;24.88;49.56
3544;BME280;1786;52.870;9.578;2022-07-06T02:20:49;101321.97;;;24.93;49.82
3544;BME280;1786;52.870;9.578;2022-07-06T02:23:16;101321.53;;;25.12;49.66
3544;BME280;1786;52.870;9.578;2022-07-06T02:25:43;101326.25;;;24.54;50.58
3544;BME280;1786;52.870;9.578;2022-07-06T02:28:10;101319.59;;;24.98;49.52
3544;BME280;1786;52.870;9.578;2022-07-06T02:30:36;101317.81;;;24.49;50.62
3544;BME280;1786;52.870;9.578;2022-07-06T02:33:03;101323.00;;;24.83;50.06
3544;BME280;1786;52.870;9.578;2022-07-06T02:35:31;101321.13;;;24.92;49.58
3544;BME280;1786;52.870;9.578;2022-07-06T02:37:59;101326.53;;;24.92;49.77
3544;BME280;1786;52.870;9.578;2022-07-06T02:40:26;101327.19;;;25.02;49.80
3544;BME280;1786;52.870;9.578;2022-07-06T02:42:52;101320.94;;;24.94;50.09
3544;BME280;1786;52.870;9.578;2022-07-06T02:45:19;101324.06;;;25.22;49.39
3544;BME280;1786;52.870;9.578;2022-07-06T02:47:46;101319.88;;;25.11;49.87
3544;BME280;1786;52.870;9.578;2022-07-06T02:50:14;101327.84;;;24.96;49.75
3544;BME280;1786;52.870;9.578;2022-07-06T02:52:41;101324.09;;;25.14;49.90
3544;BME280;1786;52.870;9.578;2022-07-06T02:55:09;101320.69;;;25.20;49.76
3544;BME280;1786;52.870;9.578;2022-07-06T02:57:36;101320.03;;;25.26;49.46
3544;BME280;1786;52.870;9.578;2022-07-06T03:00:04;101321.09;;;25.00;49.82
3544;BME280;1786;52.870;9.578;2022-07-06T03:02:31;101321.41;;;25.05;50.21
3544;BME280;1786;52.870;9.578;2022-07-06T03:04:59;101325.00;;;24.98;50.13
3544;BME280;1786;52.870;9.578;2022-07-06T03:07:27;101330.47;;;25.29;49.77
3544;BME280;1786;52.870;9.578;2022-07-06T03:09:54;101333.50;;;25.34;49.65
3544;BME280;1786;52.870;9.578;2022-07-06T03:12:21;101336.94;;;25.28;49.81
3544;BME280;1786;52.870;9.578;2022-07-06T03:14:47;101339.91;;;24.45;51.30
3544;BME280;1786;52.870;9.578;2022-07-06T03:17:15;101344.13;;;24.88;50.61
3544;BME280;1786;52.870;9.578;2022-07-06T03:19:42;101340.03;;;25.00;50.58
3544;BME280;1786;52.870;9.578;2022-07-06T03:22:09;101340.94;;;25.32;50.00
3544;BME280;1786;52.870;9.578;2022-07-06T03:24:35;101336.28;;;25.18;50.01
3544;BME280;1786;52.870;9.578;2022-07-06T03:27:03;101339.91;;;25.41;49.90
3544;BME280;1786;52.870;9.578;2022-07-06T03:29:30;101343.06;;;25.05;50.55
3544;BME280;1786;52.870;9.578;2022-07-06T03:31:57;101340.47;;;25.29;50.06
3544;BME280;1786;52.870;9.578;2022-07-06T03:34:24;101335.44;;;25.57;49.52
3544;BME280;1786;52.870;9.578;2022-07-06T03:36:52;101346.31;;;26.49;48.09
3544;BME280;1786;52.870;9.578;2022-07-06T03:39:18;101344.81;;;26.00;48.46
3544;BME280;1786;52.870;9.578;2022-07-06T03:41:45;101332.75;;;25.48;49.69
3544;BME280;1786;52.870;9.578;2022-07-06T03:44:12;101337.28;;;25.25;50.26
3544;BME280;1786;52.870;9.578;2022-07-06T03:46:40;101335.38;;;26.19;49.15
3544;BME280;1786;52.870;9.578;2022-07-06T03:49:07;101334.66;;;26.02;48.98
3544;BME280;1786;52.870;9.578;2022-07-06T03:51:34;101339.72;;;26.05;48.81
3544;BME280;1786;52.870;9.578;2022-07-06T03:54:01;101338.06;;;26.80;47.42
3544;BME280;1786;52.870;9.578;2022-07-06T03:56:29;101346.09;;;27.62;46.50
3544;BME280;1786;52.870;9.578;2022-07-06T03:59:04;101344.38;;;27.25;47.07
3544;BME280;1786;52.870;9.578;2022-07-06T04:01:35;101341.19;;;26.16;49.04
3544;BME280;1786;52.870;9.578;2022-07-06T04:04:02;101346.03;;;26.82;47.49
3544;BME280;1786;52.870;9.578;2022-07-06T04:06:32;101346.97;;;27.04;47.42
3544;BME280;1786;52.870;9.578;2022-07-06T04:09:02;101353.28;;;26.43;48.22
3544;BME280;1786;52.870;9.578;2022-07-06T04:11:29;101346.13;;;25.81;49.71
3544;BME280;1786;52.870;9.578;2022-07-06T04:13:56;101345.63;;;25.86;49.54
3544;BME280;1786;52.870;9.578;2022-07-06T04:16:24;101346.59;;;26.16;49.42
3544;BME280;1786;52.870;9.578;2022-07-06T04:18:51;101346.63;;;26.08;49.55
3544;BME280;1786;52.870;9.578;2022-07-06T04:21:18;101351.34;;;25.83;50.02
3544;BME280;1786;52.870;9.578;2022-07-06T04:23:44;101347.38;;;25.71;50.30
3544;BME280;1786;52.870;9.578;2022-07-06T04:26:12;101348.09;;;25.96;49.86
3544;BME280;1786;52.870;9.578;2022-07-06T04:28:39;101352.94;;;26.00;49.98
3544;BME280;1786;52.870;9.578;2022-07-06T04:31:06;101353.22;;;25.82;50.19
3544;BME280;1786;52.870;9.578;2022-07-06T04:33:34;101355.25;;;26.58;48.76
3544;BME280;1786;52.870;9.578;2022-07-06T04:36:00;101358.97;;;27.09;48.19
3544;BME280;1786;52.870;9.578;2022-07-06T04:38:35;101357.63;;;27.05;47.93
3544;BME280;1786;52.870;9.578;2022-07-06T04:41:05;101357.28;;;25.86;50.14
3544;BME280;1786;52.870;9.578;2022-07-06T04:43:32;101348.88;;;26.04;50.10
3544;BME280;1786;52.870;9.578;2022-07-06T04:45:59;101349.00;;;25.88;50.52
3544;BME280;1786;52.870;9.578;2022-07-06T04:48:29;101356.63;;;27.36;48.06
3544;BME280;1786;52.870;9.578;2022-07-06T04:50:56;101357.84;;;27.18;48.00
3544;BME280;1786;52.870;9.578;2022-07-06T04:53:26;101349.97;;;27.09;48.11
3544;BME280;1786;52.870;9.578;2022-07-06T04:55:54;101356.19;;;27.83;47.29
3544;BME280;1786;52.870;9.578;2022-07-06T04:58:21;101356.41;;;27.67;47.57
3544;BME280;1786;52.870;9.578;2022-07-06T05:00:49;101355.66;;;27.58;47.25
3544;BME280;1786;52.870;9.578;2022-07-06T05:03:16;101348.44;;;27.66;47.25
3544;BME280;1786;52.870;9.578;2022-07-06T05:05:44;101352.91;;;27.22;48.29
3544;BME280;1786;52.870;9.578;2022-07-06T05:08:11;101355.75;;;27.06;48.47
3544;BME280;1786;52.870;9.578;2022-07-06T05:10:38;101352.09;;;27.58;47.79
3544;BME280;1786;52.870;9.578;2022-07-06T05:13:05;101359.59;;;28.50;46.63
3544;BME280;1786;52.870;9.578;2022-07-06T05:15:32;101361.94;;;28.60;47.04
3544;BME280;1786;52.870;9.578;2022-07-06T05:17:59;101359.53;;;29.34;45.35
3544;BME280;1786;52.870;9.578;2022-07-06T05:20:26;101362.00;;;29.29;44.84
3544;BME280;1786;52.870;9.578;2022-07-06T05:22:52;101359.81;;;28.34;46.38
3544;BME280;1786;52.870;9.578;2022-07-06T05:25:24;101351.06;;;28.60;46.01
3544;BME280;1786;52.870;9.578;2022-07-06T05:27:51;101353.84;;;29.29;45.14
3544;BME280;1786;52.870;9.578;2022-07-06T05:30:18;101351.84;;;28.32;46.51
3544;BME280;1786;52.870;9.578;2022-07-06T05:32:45;101358.19;;;28.89;45.53
3544;BME280;1786;52.870;9.578;2022-07-06T05:35:12;101358.47;;;29.29;45.32
3544;BME280;1786;52.870;9.578;2022-07-06T05:38:01;101353.16;;;29.14;45.12
3544;BME280;1786;52.870;9.578;2022-07-06T05:40:28;101356.09;;;29.19;45.17
3544;BME280;1786;52.870;9.578;2022-07-06T05:42:54;101367.13;;;29.94;44.55
3544;BME280;1786;52.870;9.578;2022-07-06T05:45:21;101366.28;;;30.00;44.77
3544;BME280;1786;52.870;9.578;2022-07-06T05:47:50;101367.53;;;28.09;46.61
3544;BME280;1786;52.870;9.578;2022-07-06T05:50:35;101365.06;;;28.35;46.80
3544;BME280;1786;52.870;9.578;2022-07-06T05:53:03;101363.50;;;28.47;46.24
3544;BME280;1786;52.870;9.578;2022-07-06T05:55:46;101368.81;;;29.12;44.83
3544;BME280;1786;52.870;9.578;2022-07-06T05:58:14;101365.59;;;29.78;44.23
3544;BME280;1786;52.870;9.578;2022-07-06T06:00:42;101370.63;;;29.74;43.72
3544;BME280;1786;52.870;9.578;2022-07-06T06:03:14;101374.88;;;28.79;45.21
3544;BME280;1786;52.870;9.578;2022-07-06T06:05:41;101374.69;;;28.53;46.49
3544;BME280;1786;52.870;9.578;2022-07-06T06:08:09;101378.53;;;28.43;46.28
3544;BME280;1786;52.870;9.578;2022-07-06T06:10:36;101375.22;;;29.81;43.79
3544;BME280;1786;52.870;9.578;2022-07-06T06:13:07;101376.94;;;29.82;44.44
3544;BME280;1786;52.870;9.578;2022-07-06T06:15:34;101384.59;;;30.26;43.89
3544;BME280;1786;52.870;9.578;2022-07-06T06:18:02;101383.19;;;29.69;44.31
3544;BME280;1786;52.870;9.578;2022-07-06T06:20:30;101387.09;;;29.18;45.49
3544;BME280;1786;52.870;9.578;2022-07-06T06:22:58;101388.84;;;29.74;43.91
3544;BME280;1786;52.870;9.578;2022-07-06T06:25:33;101381.00;;;29.16;45.20
3544;BME280;1786;52.870;9.578;2022-07-06T06:28:05;101390.91;;;30.27;43.99
3544;BME280;1786;52.870;9.578;2022-07-06T06:30:32;101393.63;;;30.93;43.04
3544;BME280;1786;52.870;9.578;2022-07-06T06:33:19;101396.19;;;31.66;41.87
3544;BME280;1786;52.870;9.578;2022-07-06T06:35:50;101391.53;;;30.95;41.95
3544;BME280;1786;52.870;9.578;2022-07-06T06:38:22;101393.81;;;31.12;42.65
3544;BME280;1786;52.870;9.578;2022-07-06T06:40:53;101388.72;;;31.35;42.11
3544;BME280;1786;52.870;9.578;2022-07-06T06:43:20;101383.97;;;32.14;41.10
3544;BME280;1786;52.870;9.578;2022-07-06T06:45:59;101393.06;;;32.33;40.78
3544;BME280;1786;52.870;9.578;2022-07-06T06:48:25;101387.81;;;32.31;40.76
3544;BME280;1786;52.870;9.578;2022-07-06T06:50:53;101384.72;;;31.96;40.83
3544;BME280;1786;52.870;9.578;2022-07-06T06:53:20;101401.88;;;33.84;39.00
3544;BME280;1786;52.870;9.578;2022-07-06T06:55:47;101401.03;;;33.16;39.73
3544;BME280;1786;52.870;9.578;2022-07-06T06:58:14;101403.50;;;32.74;39.74
3544;BME280;1786;52.870;9.578;2022-07-06T07:00:40;101405.78;;;33.03;39.54
3544;BME280;1786;52.870;9.578;2022-07-06T07:03:07;101406.63;;;32.53;39.43
3544;BME280;1786;52.870;9.578;2022-07-06T07:05:34;101394.25;;;31.02;41.51
3544;BME280;1786;52.870;9.578;2022-07-06T07:08:00;101401.31;;;32.83;39.31
3544;BME280;1786;52.870;9.578;2022-07-06T07:10:31;101403.97;;;32.71;38.77
3544;BME280;1786;52.870;9.578;2022-07-06T07:12:58;101398.97;;;32.62;39.25
3544;BME280;1786;52.870;9.578;2022-07-06T07:15:25;101400.41;;;32.39;39.24
3544;BME280;1786;52.870;9.578;2022-07-06T07:17:52;101402.69;;;32.42;39.25
3544;BME280;1786;52.870;9.578;2022-07-06T07:20:19;101407.63;;;32.84;38.49
3544;BME280;1786;52.870;9.578;2022-07-06T07:22:46;101413.81;;;32.97;38.96
3544;BME280;1786;52.870;9.578;2022-07-06T07:25:13;101411.06;;;32.54;39.43
3544;BME280;1786;52.870;9.578;2022-07-06T07:27:39;101417.75;;;33.64;38.34
3544;BME280;1786;52.870;9.578;2022-07-06T07:30:07;101410.34;;;32.33;39.21
3544;BME280;1786;52.870;9.578;2022-07-06T07:32:33;101410.63;;;31.80;40.04
3544;BME280;1786;52.870;9.578;2022-07-06T07:35:00;101415.41;;;32.30;39.91
3544;BME280;1786;52.870;9.578;2022-07-06T07:37:27;101417.47;;;32.34;39.40
3544;BME280;1786;52.870;9.578;2022-07-06T07:39:54;101418.31;;;32.03;39.77
3544;BME280;1786;52.870;9.578;2022-07-06T07:42:21;101427.34;;;32.67;39.06
3544;BME280;1786;52.870;9.578;2022-07-06T07:44:48;101428.94;;;33.00;38.17
3544;BME280;1786;52.870;9.578;2022-07-06T07:47:15;101421.03;;;32.92;38.58
3544;BME280;1786;52.870;9.578;2022-07-06T07:49:42;101426.97;;;33.14;38.53
3544;BME280;1786;52.870;9.578;2022-07-06T07:52:09;101422.16;;;32.59;38.87
3544;BME280;1786;52.870;9.578;2022-07-06T07:54:36;101422.50;;;32.69;38.66
3544;BME280;1786;52.870;9.578;2022-07-06T07:57:09;101424.44;;;33.31;38.38
3544;BME280;1786;52.870;9.578;2022-07-06T07:59:36;101427.66;;;33.28;38.33
3544;BME280;1786;52.870;9.578;2022-07-06T08:02:03;101429.28;;;33.84;37.85
3544;BME280;1786;52.870;9.578;2022-07-06T08:04:30;101428.88;;;34.17;37.13
3544;BME280;1786;52.870;9.578;2022-07-06T08:06:56;101427.09;;;34.23;37.43
3544;BME280;1786;52.870;9.578;2022-07-06T08:09:28;101434.28;;;35.25;36.06
3544;BME280;1786;52.870;9.578;2022-07-06T08:11:55;101426.84;;;34.13;36.84
3544;BME280;1786;52.870;9.578;2022-07-06T08:14:21;101430.28;;;33.59;37.12
3544;BME280;1786;52.870;9.578;2022-07-06T08:16:48;101423.66;;;32.80;37.33
3544;BME280;1786;52.870;9.578;2022-07-06T08:19:15;101422.63;;;32.56;37.98
3544;BME280;1786;52.870;9.578;2022-07-06T08:21:42;101428.91;;;32.57;37.79
3544;BME280;1786;52.870;9.578;2022-07-06T08:24:11;101423.03;;;31.83;38.52
3544;BME280;1786;52.870;9.578;2022-07-06T08:26:37;101416.13;;;31.67;39.20
3544;BME280;1786;52.870;9.578;2022-07-06T08:29:04;101419.59;;;31.29;39.65
3544;BME280;1786;52.870;9.578;2022-07-06T08:31:31;101415.44;;;31.20;39.85
3544;BME280;1786;52.870;9.578;2022-07-06T08:34:19;101422.19;;;30.97;39.94
3544;BME280;1786;52.870;9.578;2022-07-06T08:36:46;101416.94;;;30.49;40.62
3544;BME280;1786;52.870;9.578;2022-07-06T08:39:13;101413.03;;;30.04;41.05
3544;BME280;1786;52.870;9.578;2022-07-06T08:41:43;101421.56;;;29.46;41.33
3544;BME280;1786;52.870;9.578;2022-07-06T08:44:15;101416.31;;;29.79;41.12
3544;BME280;1786;52.870;9.578;2022-07-06T08:46:42;101417.25;;;30.13;41.49
3544;BME280;1786;52.870;9.578;2022-07-06T08:49:12;101415.06;;;29.82;40.90
3544;BME280;1786;52.870;9.578;2022-07-06T08:51:40;101420.59;;;29.53;41.71
3544;BME280;1786;52.870;9.578;2022-07-06T08:54:08;101416.56;;;29.84;41.35
3544;BME280;1786;52.870;9.578;2022-07-06T08:56:36;101411.78;;;29.58;42.04
3544;BME280;1786;52.870;9.578;2022-07-06T08:59:03;101409.63;;;29.88;42.23
3544;BME280;1786;52.870;9.578;2022-07-06T09:01:30;101418.56;;;31.23;40.10
3544;BME280;1786;52.870;9.578;2022-07-06T09:03:58;101405.38;;;30.80;40.71
3544;BME280;1786;52.870;9.578;2022-07-06T09:06:27;101406.00;;;31.09;40.60
3544;BME280;1786;52.870;9.578;2022-07-06T09:08:55;101410.75;;;31.99;38.68
3544;BME280;1786;52.870;9.578;2022-07-06T09:11:23;101411.56;;;32.06;39.17
3544;BME280;1786;52.870;9.578;2022-07-06T09:13:51;101408.03;;;31.99;39.00
3544;BME280;1786;52.870;9.578;2022-07-06T09:16:25;101425.13;;;33.45;37.16
3544;BME280;1786;52.870;9.578;2022-07-06T09:19:05;101427.59;;;34.01;36.71
3544;BME280;1786;52.870;9.578;2022-07-06T09:21:32;101433.66;;;33.36;36.51
3544;BME280;1786;52.870;9.578;2022-07-06T09:24:01;101431.25;;;32.78;37.32
3544;BME280;1786;52.870;9.578;2022-07-06T09:26:32;101428.63;;;32.90;37.56
3544;BME280;1786;52.870;9.578;2022-07-06T09:28:58;101437.16;;;33.00;37.70
3544;BME280;1786;52.870;9.578;2022-07-06T09:31:28;101431.22;;;33.10;37.28
3544;BME280;1786;52.870;9.578;2022-07-06T09:34:04;101436.28;;;33.98;35.99
3544;BME280;1786;52.870;9.578;2022-07-06T09:36:48;101437.34;;;33.67;36.66
3544;BME280;1786;52.870;9.578;2022-07-06T09:39:20;101435.69;;;32.47;38.43
3544;BME280;1786;52.870;9.578;2022-07-06T09:41:48;101436.09;;;31.74;39.62
3544;BME280;1786;52.870;9.578;2022-07-06T09:44:26;101424.44;;;31.27;39.77
3544;BME280;1786;52.870;9.578;2022-07-06T09:46:56;101421.47;;;31.48;40.40
3544;BME280;1786;52.870;9.578;2022-07-06T09:49:24;101430.44;;;32.14;39.42
3544;BME280;1786;52.870;9.578;2022-07-06T09:52:01;101434.22;;;32.76;38.87
3544;BME280;1786;52.870;9.578;2022-07-06T09:54:29;101438.91;;;32.69;38.35
3544;BME280;1786;52.870;9.578;2022-07-06T09:56:56;101430.63;;;31.74;39.78
3544;BME280;1786;52.870;9.578;2022-07-06T09:59:34;101429.44;;;32.08;39.81
3544;BME280;1786;52.870;9.578;2022-07-06T10:02:04;101430.25;;;32.41;39.91
3544;BME280;1786;52.870;9.578;2022-07-06T10:04:31;101442.25;;;33.22;38.66
3544;BME280;1786;52.870;9.578;2022-07-06T10:06:59;101431.75;;;34.64;36.33
3544;BME280;1786;52.870;9.578;2022-07-06T10:09:27;101443.72;;;35.05;35.30
3544;BME280;1786;52.870;9.578;2022-07-06T10:11:58;101435.13;;;34.78;36.76
3544;BME280;1786;52.870;9.578;2022-07-06T10:14:29;101437.41;;;35.81;35.71
3544;BME280;1786;52.870;9.578;2022-07-06T10:16:56;101432.78;;;36.72;35.09
3544;BME280;1786;52.870;9.578;2022-07-06T10:19:24;101448.03;;;37.36;33.85
3544;BME280;1786;52.870;9.578;2022-07-06T10:21:51;101435.91;;;36.98;33.82
3544;BME280;1786;52.870;9.578;2022-07-06T10:24:20;101436.91;;;37.09;33.30
3544;BME280;1786;52.870;9.578;2022-07-06T10:26:47;101442.69;;;38.17;32.58
3544;BME280;1786;52.870;9.578;2022-07-06T10:29:15;101436.22;;;38.34;31.98
3544;BME280;1786;52.870;9.578;2022-07-06T10:31:47;101444.13;;;38.25;32.09
3544;BME280;1786;52.870;9.578;2022-07-06T10:34:16;101440.81;;;37.52;32.65
3544;BME280;1786;52.870;9.578;2022-07-06T10:36:49;101446.69;;;37.55;32.57
3544;BME280;1786;52.870;9.578;2022-07-06T10:39:32;101434.56;;;36.83;32.83
3544;BME280;1786;52.870;9.578;2022-07-06T10:45:09;101438.44;;;38.37;32.66
3544;BME280;1786;52.870;9.578;2022-07-06T10:47:36;101428.69;;;37.31;32.77
3544;BME280;1786;52.870;9.578;2022-07-06T10:50:04;101423.69;;;37.28;33.18
3544;BME280;1786;52.870;9.578;2022-07-06T10:52:57;101431.59;;;37.24;33.38
3544;BME280;1786;52.870;9.578;2022-07-06T10:55:38;101436.94;;;37.75;33.56
3544;BME280;1786;52.870;9.578;2022-07-06T10:58:05;101428.97;;;37.34;32.80
3544;BME280;1786;52.870;9.578;2022-07-06T11:00:52;101420.03;;;37.66;32.47
3544;BME280;1786;52.870;9.578;2022-07-06T11:06:31;101427.91;;;38.28;32.08
3544;BME280;1786;52.870;9.578;2022-07-06T11:09:06;101430.63;;;37.74;32.81
3544;BME280;1786;52.870;9.578;2022-07-06T11:16:33;101422.59;;;35.58;33.57
3544;BME280;1786;52.870;9.578;2022-07-06T11:19:06;101418.59;;;35.37;34.20
3544;BME280;1786;52.870;9.578;2022-07-06T11:24:01;101417.81;;;34.78;34.77
3544;BME280;1786;52.870;9.578;2022-07-06T11:26:30;101411.00;;;33.96;35.52
3544;BME280;1786;52.870;9.578;2022-07-06T11:29:05;101408.25;;;34.68;34.90
3544;BME280;1786;52.870;9.578;2022-07-06T11:31:41;101417.66;;;35.31;35.01
3544;BME280;1786;52.870;9.578;2022-07-06T11:34:10;101408.13;;;33.91;36.12
3544;BME280;1786;52.870;9.578;2022-07-06T11:36:37;101407.94;;;34.46;35.76
3544;BME280;1786;52.870;9.578;2022-07-06T11:39:11;101391.16;;;35.02;34.74
3544;BME280;1786;52.870;9.578;2022-07-06T11:41:38;101390.72;;;35.86;34.07
3544;BME280;1786;52.870;9.578;2022-07-06T11:44:05;101396.19;;;34.93;34.98
3544;BME280;1786;52.870;9.578;2022-07-06T11:46:33;101392.72;;;35.21;34.44
3544;BME280;1786;52.870;9.578;2022-07-06T11:49:02;101388.03;;;36.03;33.90
3544;BME280;1786;52.870;9.578;2022-07-06T11:51:32;101396.03;;;36.67;33.34
3544;BME280;1786;52.870;9.578;2022-07-06T11:54:11;101397.13;;;37.93;32.09
3544;BME280;1786;52.870;9.578;2022-07-06T11:56:47;101401.53;;;37.88;32.72
3544;BME280;1786;52.870;9.578;2022-07-06T11:59:14;101398.06;;;38.30;31.38
3544;BME280;1786;52.870;9.578;2022-07-06T12:01:42;101401.50;;;38.80;31.34
3544;BME280;1786;52.870;9.578;2022-07-06T12:04:10;101395.25;;;39.43;31.19
3544;BME280;1786;52.870;9.578;2022-07-06T12:06:37;101396.69;;;39.55;30.93
3544;BME280;1786;52.870;9.578;2022-07-06T12:09:10;101401.91;;;39.47;30.32
3544;BME280;1786;52.870;9.578;2022-07-06T12:11:37;101394.84;;;39.24;31.12
3544;BME280;1786;52.870;9.578;2022-07-06T12:14:18;101391.25;;;40.07;30.29
3544;BME280;1786;52.870;9.578;2022-07-06T12:16:46;101383.78;;;39.18;31.34
3544;BME280;1786;52.870;9.578;2022-07-06T12:19:14;101379.59;;;39.79;30.67
3544;BME280;1786;52.870;9.578;2022-07-06T12:21:45;101384.09;;;40.47;29.91
3544;BME280;1786;52.870;9.578;2022-07-06T12:24:24;101384.38;;;40.24;29.90
3544;BME280;1786;52.870;9.578;2022-07-06T12:26:52;101376.25;;;39.67;29.96
3544;BME280;1786;52.870;9.578;2022-07-06T12:29:20;101368.66;;;38.84;31.09
3544;BME280;1786;52.870;9.578;2022-07-06T12:31:50;101375.09;;;38.94;29.82
3544;BME280;1786;52.870;9.578;2022-07-06T12:34:23;101367.63;;;38.20;29.95
3544;BME280;1786;52.870;9.578;2022-07-06T12:36:58;101365.09;;;38.14;30.23
3544;BME280;1786;52.870;9.578;2022-07-06T12:39:41;101367.56;;;38.15;30.11
3544;BME280;1786;52.870;9.578;2022-07-06T12:42:08;101369.31;;;37.23;31.16
3544;BME280;1786;52.870;9.578;2022-07-06T12:44:45;101368.53;;;37.06;31.75
3544;BME280;1786;52.870;9.578;2022-07-06T12:47:15;101366.28;;;37.24;32.09
3544;BME280;1786;52.870;9.578;2022-07-06T12:49:43;101360.38;;;36.43;33.00
3544;BME280;1786;52.870;9.578;2022-07-06T12:52:14;101362.28;;;36.76;32.96
3544;BME280;1786;52.870;9.578;2022-07-06T12:57:21;101366.16;;;36.58;33.00
3544;BME280;1786;52.870;9.578;2022-07-06T13:02:34;101368.28;;;37.51;31.86
3544;BME280;1786;52.870;9.578;2022-07-06T13:05:25;101366.53;;;37.94;30.45
3544;BME280;1786;52.870;9.578;2022-07-06T13:07:56;101357.38;;;38.16;31.89
3544;BME280;1786;52.870;9.578;2022-07-06T13:10:25;101357.47;;;37.72;31.14
3544;BME280;1786;52.870;9.578;2022-07-06T13:12:52;101360.19;;;37.94;31.79
3544;BME280;1786;52.870;9.578;2022-07-06T13:15:20;101367.41;;;38.59;30.38
3544;BME280;1786;52.870;9.578;2022-07-06T13:17:47;101361.06;;;39.06;30.17
3544;BME280;1786;52.870;9.578;2022-07-06T13:20:14;101362.13;;;39.00;30.22
3544;BME280;1786;52.870;9.578;2022-07-06T13:22:43;101358.25;;;37.94;31.51
3544;BME280;1786;52.870;9.578;2022-07-06T13:25:11;101357.09;;;38.49;30.99
3544;BME280;1786;52.870;9.578;2022-07-06T13:27:39;101353.03;;;38.25;30.46
3544;BME280;1786;52.870;9.578;2022-07-06T13:30:06;101361.16;;;38.79;30.59
3544;BME280;1786;52.870;9.578;2022-07-06T13:32:33;101349.78;;;37.74;30.72
3544;BME280;1786;52.870;9.578;2022-07-06T13:34:59;101351.41;;;37.25;31.30
3544;BME280;1786;52.870;9.578;2022-07-06T13:37:26;101351.91;;;37.44;31.25